Time;durP1;ratioP1;P1;durP2;ratioP2;P2;SDS_P1;SDS_P2;PMS_P1;PMS_P2;Temp;Humidity;BMP_temperature;BMP_pressure;BME280_temperature;BME280_humidity;BME280_pressure;Samples;Min_cycle;Max_cycle;Signal;HPM_P1;HPM_P2
2024/01/14 00:00:09;;;;;;;5.63;2.88;;;-15.10;82.30;;;;;;5012770;28;20025;-83
2024/01/14 00:02:35;;;;;;;3.78;1.98;;;-15.00;82.50;;;;;;5015348;28;20104;-84
2024/01/14 00:05:02;;;;;;;5.72;2.55;;;-15.00;82.80;;;;;;5017851;28;20030;-82
2024/01/14 00:07:27;;;;;;;10.60;3.35;;;-15.00;82.90;;;;;;5016947;28;20026;-84
2024/01/14 00:09:53;;;;;;;5.33;1.23;;;-15.00;83.20;;;;;;5017051;28;20026;-84
2024/01/14 00:12:19;;;;;;;4.97;1.43;;;-15.00;83.40;;;;;;5023479;28;20073;-85
2024/01/14 00:14:45;;;;;;;2.37;2.10;;;-15.00;83.80;;;;;;5006829;28;20034;-83
2024/01/14 00:17:11;;;;;;;3.13;1.70;;;-15.00;83.80;;;;;;5016915;28;20034;-83
2024/01/14 00:19:39;;;;;;;5.17;2.83;;;-15.00;84.00;;;;;;5016949;28;20022;-82
2024/01/14 00:22:05;;;;;;;8.48;3.13;;;-14.90;84.90;;;;;;5015354;28;20022;-83
2024/01/14 00:24:31;;;;;;;5.17;3.00;;;-15.00;85.30;;;;;;4999534;28;20500;-82
2024/01/14 00:26:57;;;;;;;5.70;3.33;;;-15.00;86.00;;;;;;5015617;28;20364;-81
2024/01/14 00:29:23;;;;;;;6.43;3.97;;;-15.00;86.50;;;;;;5016231;28;20030;-81
2024/01/14 00:31:49;;;;;;;5.18;2.50;;;-15.10;86.90;;;;;;5016185;28;20463;-82
2024/01/14 00:34:15;;;;;;;4.60;2.23;;;-15.10;87.30;;;;;;5014985;28;20037;-83
2024/01/14 00:36:41;;;;;;;7.43;2.43;;;-15.20;87.80;;;;;;4998855;28;20026;-81
2024/01/14 00:39:07;;;;;;;8.47;2.80;;;-15.20;88.30;;;;;;5016053;28;20117;-83
2024/01/14 00:41:33;;;;;;;4.23;1.90;;;-15.20;88.60;;;;;;5017123;28;20089;-83
2024/01/14 00:44:00;;;;;;;5.07;3.28;;;-15.30;88.80;;;;;;5017037;28;20030;-82
2024/01/14 00:46:26;;;;;;;;;;;-15.30;88.80;;;;;;5016153;28;20045;-82
2024/01/14 00:48:52;;;;;;;2.38;2.00;;;-15.20;88.90;;;;;;5015982;28;20373;-83
2024/01/14 00:51:18;;;;;;;4.10;2.80;;;-15.20;89.00;;;;;;5016110;28;20041;-82
2024/01/14 00:53:44;;;;;;;5.57;2.63;;;-15.30;89.10;;;;;;4997262;28;20625;-82
2024/01/14 00:56:11;;;;;;;4.40;1.70;;;-15.30;89.40;;;;;;4998236;28;20119;-83
2024/01/14 00:58:38;;;;;;;8.77;2.90;;;-15.30;89.70;;;;;;5015111;28;20029;-83
2024/01/14 01:01:04;;;;;;;2.17;1.30;;;-15.40;90.00;;;;;;5016750;28;20041;-82
2024/01/14 01:03:29;;;;;;;4.13;2.53;;;-15.40;90.10;;;;;;5028820;28;20109;-84
2024/01/14 01:05:55;;;;;;;3.33;1.83;;;-15.40;90.30;;;;;;5017161;28;20170;-83
2024/01/14 01:08:22;;;;;;;6.07;2.07;;;-15.40;90.50;;;;;;5000125;28;20125;-81
2024/01/14 01:10:49;;;;;;;5.22;2.40;;;-15.40;90.60;;;;;;5016437;28;21087;-82
2024/01/14 01:13:14;;;;;;;;;;;-15.40;90.70;;;;;;5015736;28;20025;-82
2024/01/14 01:15:40;;;;;;;1.80;1.40;;;-15.40;90.80;;;;;;5016063;28;20012;-82
2024/01/14 01:18:06;;;;;;;5.13;2.57;;;-15.40;90.90;;;;;;5027179;28;20084;-82
2024/01/14 01:20:32;;;;;;;3.80;2.40;;;-15.30;91.00;;;;;;5024785;28;20185;-82
2024/01/14 01:22:58;;;;;;;4.23;2.93;;;-15.30;91.20;;;;;;5015961;28;20065;-84
2024/01/14 01:25:25;;;;;;;2.90;2.60;;;-15.30;91.40;;;;;;5015824;28;20022;-81
2024/01/14 01:27:51;;;;;;;2.45;2.25;;;-15.30;91.70;;;;;;5015450;28;20029;-83
2024/01/14 01:30:17;;;;;;;4.28;2.35;;;-15.30;91.90;;;;;;5015392;28;20102;-83
2024/01/14 01:32:43;;;;;;;4.13;1.70;;;-15.20;92.30;;;;;;5010365;28;20037;-81
2024/01/14 01:35:09;;;;;;;1.30;1.20;;;-15.20;92.30;;;;;;5021983;28;20038;-82
2024/01/14 01:37:35;;;;;;;4.28;1.92;;;-15.10;92.40;;;;;;5024235;28;20359;-83
2024/01/14 01:40:02;;;;;;;4.43;2.20;;;-15.00;92.50;;;;;;5016258;28;20056;-83
2024/01/14 01:42:28;;;;;;;4.57;1.73;;;-15.00;92.60;;;;;;5016605;28;20266;-83
2024/01/14 01:44:54;;;;;;;4.07;1.97;;;-15.00;92.70;;;;;;5027051;28;20487;-83
2024/01/14 01:47:20;;;;;;;3.57;2.07;;;-15.10;92.80;;;;;;5026467;28;20076;-83
2024/01/14 01:49:46;;;;;;;5.17;2.33;;;-15.10;92.90;;;;;;5024850;28;20022;-81
2024/01/14 01:52:14;;;;;;;10.55;2.72;;;-15.00;93.30;;;;;;5016394;28;20025;-84
2024/01/14 01:54:41;;;;;;;6.60;1.75;;;-15.00;93.10;;;;;;5014039;28;20037;-84
2024/01/14 01:57:08;;;;;;;4.32;2.47;;;-15.00;93.20;;;;;;5018850;28;20033;-82
2024/01/14 01:59:35;;;;;;;3.50;2.50;;;-14.90;93.30;;;;;;5024598;28;20026;-82
2024/01/14 02:02:01;;;;;;;;;;;-14.90;93.30;;;;;;5028569;28;20029;-81
2024/01/14 02:04:28;;;;;;;5.30;1.67;;;-14.90;93.40;;;;;;5019915;28;19905;-82
2024/01/14 02:06:55;;;;;;;8.85;2.28;;;-14.80;93.40;;;;;;5014255;28;20026;-81
2024/01/14 02:09:21;;;;;;;4.43;1.75;;;-14.80;93.50;;;;;;5014758;28;20030;-81
2024/01/14 02:11:47;;;;;;;0.43;0.43;;;-14.70;93.50;;;;;;5014009;28;20026;-81
2024/01/14 02:14:13;;;;;;;8.13;3.07;;;-14.70;93.60;;;;;;5013924;28;20026;-81
2024/01/14 02:16:39;;;;;;;2.77;2.07;;;-14.60;93.70;;;;;;5014562;28;20025;-82
2024/01/14 02:19:05;;;;;;;5.17;2.37;;;-14.60;93.70;;;;;;5015495;28;20048;-84
2024/01/14 02:21:45;;;;;;;4.50;2.35;;;-14.60;93.80;;;;;;4999557;28;20022;-82
2024/01/14 02:24:18;;;;;;;5.03;2.15;;;-14.60;93.80;;;;;;5019911;28;20040;-82
2024/01/14 02:26:44;;;;;;;3.60;2.88;;;-14.60;93.90;;;;;;5012936;28;20161;-82
2024/01/14 02:29:11;;;;;;;6.33;2.77;;;-14.60;93.80;;;;;;5013773;28;20022;-82
2024/01/14 02:31:37;;;;;;;15.25;3.72;;;-14.60;93.80;;;;;;5013356;28;20040;-81
2024/01/14 02:34:06;;;;;;;4.10;2.15;;;-14.70;93.80;;;;;;5013504;28;20049;-82
2024/01/14 02:36:33;;;;;;;8.60;2.63;;;-14.70;93.80;;;;;;5014050;28;20121;-82
2024/01/14 02:38:59;;;;;;;3.72;2.08;;;-14.70;93.80;;;;;;5013752;28;20097;-83
2024/01/14 02:41:24;;;;;;;5.37;2.77;;;-14.70;93.80;;;;;;5011275;28;20597;-82
2024/01/14 02:43:50;;;;;;;5.35;2.30;;;-14.80;94.10;;;;;;5013958;28;20018;-81
2024/01/14 02:46:16;;;;;;;2.90;2.20;;;-14.80;93.80;;;;;;5020211;28;20042;-82
2024/01/14 02:48:42;;;;;;;2.78;1.85;;;-14.90;93.80;;;;;;5016414;28;20355;-85
2024/01/14 02:51:08;;;;;;;1.50;1.40;;;-15.00;93.90;;;;;;5013936;28;20033;-80
2024/01/14 02:53:34;;;;;;;3.10;1.90;;;-15.10;93.90;;;;;;5017678;28;20426;-81
2024/01/14 02:56:00;;;;;;;10.47;2.43;;;-15.30;94.00;;;;;;5014953;28;20057;-82
2024/01/14 02:58:26;;;;;;;5.13;2.20;;;-15.40;94.00;;;;;;5017000;28;20112;-81
2024/01/14 03:00:51;;;;;;;2.60;1.50;;;-15.50;94.00;;;;;;5017146;28;20041;-81
2024/01/14 03:03:17;;;;;;;2.73;2.03;;;-15.60;94.20;;;;;;5024096;28;20029;-81
2024/01/14 03:05:43;;;;;;;7.67;2.63;;;-15.60;94.30;;;;;;5025276;28;20033;-81
2024/01/14 03:08:09;;;;;;;5.10;3.57;;;-15.60;94.40;;;;;;5015697;28;20037;-85
2024/01/14 03:10:35;;;;;;;4.20;2.10;;;-15.70;94.50;;;;;;5014920;28;20030;-83
2024/01/14 03:13:01;;;;;;;11.00;2.73;;;-15.70;94.60;;;;;;5014730;28;20030;-82
2024/01/14 03:15:26;;;;;;;3.33;2.47;;;-15.80;94.60;;;;;;5014543;28;20042;-83
2024/01/14 03:17:52;;;;;;;2.50;1.53;;;-15.80;94.60;;;;;;5017536;28;20026;-81
2024/01/14 03:20:18;;;;;;;2.43;2.13;;;-15.80;94.60;;;;;;5026917;28;20033;-81
2024/01/14 03:22:44;;;;;;;6.97;2.47;;;-15.90;94.60;;;;;;5016603;28;20064;-81
2024/01/14 03:25:10;;;;;;;4.37;3.43;;;-16.00;94.60;;;;;;5013430;28;20073;-81
2024/01/14 03:27:36;;;;;;;5.90;2.17;;;-16.00;94.60;;;;;;5018260;28;20032;-81
2024/01/14 03:30:02;;;;;;;4.10;2.13;;;-16.10;94.60;;;;;;5032258;28;20040;-81
2024/01/14 03:32:28;;;;;;;6.50;2.70;;;-16.10;94.70;;;;;;5024072;28;20081;-82
2024/01/14 03:34:54;;;;;;;2.50;2.40;;;-16.20;94.70;;;;;;5030633;28;20409;-82
2024/01/14 03:37:19;;;;;;;4.33;2.80;;;-16.20;94.80;;;;;;5014341;28;20026;-82
2024/01/14 03:39:45;;;;;;;5.10;2.77;;;-16.20;94.80;;;;;;5013917;28;20029;-81
2024/01/14 03:42:11;;;;;;;3.33;2.47;;;-16.20;94.80;;;;;;4999528;28;20483;-81
2024/01/14 03:44:37;;;;;;;11.23;2.50;;;-16.30;94.80;;;;;;4994941;28;20030;-82
2024/01/14 03:47:03;;;;;;;3.03;2.13;;;-16.30;94.90;;;;;;5012966;28;20040;-83
2024/01/14 03:49:31;;;;;;;3.70;2.73;;;-16.30;94.90;;;;;;5012921;28;20111;-82
2024/01/14 03:51:56;;;;;;;5.07;3.17;;;-16.30;95.00;;;;;;5013067;28;20024;-81
2024/01/14 03:54:22;;;;;;;4.87;2.93;;;-16.30;95.00;;;;;;5011319;28;20030;-81
2024/01/14 03:56:48;;;;;;;9.07;3.57;;;-16.30;95.00;;;;;;5012871;28;20101;-83
2024/01/14 03:59:14;;;;;;;2.00;1.87;;;-16.30;94.90;;;;;;5013873;28;20029;-82
2024/01/14 04:01:40;;;;;;;4.23;2.73;;;-16.30;95.00;;;;;;5012993;28;20479;-82
2024/01/14 04:04:06;;;;;;;11.53;2.33;;;-16.30;95.00;;;;;;5013037;28;20018;-80
2024/01/14 04:06:32;;;;;;;6.78;3.10;;;-16.30;95.00;;;;;;5012982;28;20087;-81
2024/01/14 04:08:58;;;;;;;2.70;2.35;;;-16.30;95.00;;;;;;5012879;28;20046;-83
2024/01/14 04:11:23;;;;;;;3.93;2.50;;;-16.30;95.10;;;;;;5012701;28;20065;-82
2024/01/14 04:13:49;;;;;;;2.70;1.67;;;-16.30;95.00;;;;;;5012568;28;20381;-82
2024/01/14 04:16:16;;;;;;;7.20;2.90;;;-16.30;95.00;;;;;;5019949;28;20073;-82
2024/01/14 04:18:41;;;;;;;7.78;4.18;;;-16.40;94.90;;;;;;4999946;28;20501;-84
2024/01/14 04:21:07;;;;;;;3.27;2.23;;;-16.30;95.00;;;;;;5010676;28;20034;-82
2024/01/14 04:23:33;;;;;;;3.97;3.50;;;-16.30;95.00;;;;;;5012723;28;20072;-83
2024/01/14 04:26:05;;;;;;;2.20;1.63;;;-16.40;95.00;;;;;;5009704;28;20029;-82
2024/01/14 04:28:30;;;;;;;2.95;2.00;;;-16.40;95.10;;;;;;5012117;28;20026;-83
2024/01/14 04:30:56;;;;;;;4.77;2.70;;;-16.40;95.10;;;;;;5012156;28;20048;-83
2024/01/14 04:33:22;;;;;;;3.83;2.00;;;-16.40;95.10;;;;;;5012546;28;20021;-82
2024/01/14 04:35:48;;;;;;;4.87;4.10;;;-16.40;95.20;;;;;;5012071;28;20026;-82
2024/01/14 04:38:14;;;;;;;2.20;1.87;;;-16.40;95.20;;;;;;5012131;28;20018;-84
2024/01/14 04:40:40;;;;;;;12.15;3.53;;;-16.40;95.20;;;;;;5012334;28;20014;-82
2024/01/14 04:43:06;;;;;;;3.47;3.03;;;-16.40;95.20;;;;;;5012582;28;20861;-81
2024/01/14 04:45:32;;;;;;;8.77;2.95;;;-16.40;95.20;;;;;;4995100;28;20042;-85
2024/01/14 04:47:58;;;;;;;3.28;2.60;;;-16.40;95.20;;;;;;5027137;28;20040;-82
2024/01/14 04:50:24;;;;;;;7.47;3.17;;;-16.40;95.50;;;;;;5026848;28;20085;-82
2024/01/14 04:52:50;;;;;;;5.30;4.33;;;-16.40;95.30;;;;;;5019150;28;20117;-83
2024/01/14 04:55:15;;;;;;;6.17;4.20;;;-16.40;95.30;;;;;;5019844;28;20049;-83
2024/01/14 04:57:41;;;;;;;6.17;4.17;;;-16.40;95.40;;;;;;5020547;28;20061;-82
2024/01/14 05:00:08;;;;;;;8.83;4.40;;;-16.40;95.40;;;;;;5032360;28;20029;-83
2024/01/14 05:02:34;;;;;;;6.07;4.05;;;-16.40;95.40;;;;;;5021383;28;20113;-82
2024/01/14 05:04:59;;;;;;;5.27;3.87;;;-16.40;95.40;;;;;;5017679;28;20053;-83
2024/01/14 05:07:25;;;;;;;5.23;2.90;;;-16.40;95.40;;;;;;5017869;28;20018;-82
2024/01/14 05:09:51;;;;;;;9.73;4.27;;;-16.40;95.40;;;;;;5022180;28;20037;-83
2024/01/14 05:12:17;;;;;;;7.57;4.87;;;-16.40;95.40;;;;;;5025827;28;20033;-83
2024/01/14 05:14:43;;;;;;;7.27;3.40;;;-16.40;95.40;;;;;;5008157;28;20046;-82
2024/01/14 05:17:09;;;;;;;13.85;5.55;;;-16.40;95.40;;;;;;5017380;28;20022;-82
2024/01/14 05:19:38;;;;;;;4.50;3.53;;;-16.40;95.50;;;;;;5016468;28;20406;-85
2024/01/14 05:22:04;;;;;;;7.20;3.58;;;-16.40;95.60;;;;;;5021145;28;20425;-81
2024/01/14 05:24:30;;;;;;;2.85;2.30;;;-16.40;95.60;;;;;;5016697;28;20058;-83
2024/01/14 05:26:55;;;;;;;6.63;3.60;;;-16.40;95.60;;;;;;5025286;28;20391;-83
2024/01/14 05:29:21;;;;;;;10.07;3.85;;;-16.40;95.60;;;;;;5028505;28;20093;-82
2024/01/14 05:31:47;;;;;;;4.67;3.97;;;-16.40;95.60;;;;;;5027406;28;20090;-83
2024/01/14 05:34:13;;;;;;;3.93;3.53;;;-16.50;95.60;;;;;;5023806;28;20032;-83
2024/01/14 05:36:39;;;;;;;4.60;4.10;;;-16.50;95.70;;;;;;5013500;28;20267;-83
2024/01/14 05:39:05;;;;;;;7.33;4.33;;;-16.50;95.80;;;;;;5011749;28;20344;-83
2024/01/14 05:41:31;;;;;;;7.07;6.13;;;-16.40;95.80;;;;;;5014051;28;20029;-82
2024/01/14 05:43:57;;;;;;;5.32;3.58;;;-16.40;95.70;;;;;;5015940;28;20084;-83
2024/01/14 05:46:23;;;;;;;3.63;3.33;;;-16.50;95.60;;;;;;5026193;28;20061;-83
2024/01/14 05:48:49;;;;;;;8.30;3.88;;;-16.50;95.60;;;;;;5025660;28;20422;-82
2024/01/14 05:51:15;;;;;;;9.30;5.43;;;-16.50;95.60;;;;;;5016933;28;20092;-84
2024/01/14 05:53:41;;;;;;;8.67;3.97;;;-16.50;95.60;;;;;;5015915;28;20673;-83
2024/01/14 05:56:07;;;;;;;7.70;4.13;;;-16.50;95.60;;;;;;5015563;28;20042;-83
2024/01/14 05:58:34;;;;;;;12.43;3.90;;;-16.60;95.70;;;;;;5017820;28;20025;-82
2024/01/14 06:01:00;;;;;;;4.00;3.35;;;-16.50;95.80;;;;;;5017267;28;20057;-84
2024/01/14 06:03:26;;;;;;;;;;;-16.50;95.90;;;;;;5019062;28;20046;-83
2024/01/14 06:05:52;;;;;;;3.80;2.38;;;-16.40;95.80;;;;;;5020677;28;19929;-83
2024/01/14 06:08:18;;;;;;;7.20;3.43;;;-16.40;95.70;;;;;;5021255;28;20022;-84
2024/01/14 06:10:44;;;;;;;5.73;3.67;;;-16.40;95.70;;;;;;5021832;28;20018;-84
2024/01/14 06:13:09;;;;;;;13.03;6.47;;;-16.50;95.70;;;;;;5001836;28;20071;-81
2024/01/14 06:15:35;;;;;;;6.97;3.70;;;-16.50;95.80;;;;;;5016489;28;20494;-81
2024/01/14 06:18:01;;;;;;;8.93;4.13;;;-16.50;95.80;;;;;;5015502;28;20404;-83
2024/01/14 06:20:27;;;;;;;6.47;3.17;;;-16.50;95.90;;;;;;5013270;28;20030;-83
2024/01/14 06:22:53;;;;;;;9.60;3.00;;;-16.40;96.00;;;;;;4996880;28;20045;-82
2024/01/14 06:25:19;;;;;;;11.70;5.03;;;-16.30;96.10;;;;;;5014763;28;20065;-82
2024/01/14 06:27:44;;;;;;;6.10;4.90;;;-16.30;96.10;;;;;;5015700;28;20022;-82
2024/01/14 06:30:11;;;;;;;4.67;4.20;;;-16.20;96.20;;;;;;5014693;28;20028;-84
2024/01/14 06:32:37;;;;;;;11.73;4.97;;;-16.20;96.10;;;;;;5016377;28;20080;-84
2024/01/14 06:35:04;;;;;;;12.40;5.40;;;-16.20;96.00;;;;;;5013425;28;20033;-84
2024/01/14 06:37:29;;;;;;;10.45;7.47;;;-16.20;96.00;;;;;;5016861;28;20022;-82
2024/01/14 06:39:55;;;;;;;15.10;5.77;;;-16.20;96.10;;;;;;5004643;28;20081;-83
2024/01/14 06:42:21;;;;;;;9.27;4.87;;;-16.10;96.10;;;;;;5025812;28;20022;-83
2024/01/14 06:44:47;;;;;;;8.00;5.00;;;-16.10;96.10;;;;;;5004649;28;20045;-83
2024/01/14 06:47:13;;;;;;;17.83;5.97;;;-16.00;96.20;;;;;;5015942;28;20077;-82
2024/01/14 06:49:39;;;;;;;23.83;7.97;;;-15.90;96.30;;;;;;5012416;28;20148;-80
2024/01/14 06:52:05;;;;;;;8.57;4.93;;;-15.80;96.40;;;;;;5011371;28;20064;-83
2024/01/14 06:54:31;;;;;;;7.73;4.97;;;-15.70;96.40;;;;;;5013460;28;20030;-81
2024/01/14 06:56:57;;;;;;;13.30;6.43;;;-15.60;96.40;;;;;;5005710;28;20042;-84
2024/01/14 06:59:23;;;;;;;11.07;5.30;;;-15.60;96.20;;;;;;4995930;28;20026;-84
2024/01/14 07:01:49;;;;;;;5.28;2.90;;;-15.60;96.10;;;;;;4995672;28;20108;-83
2024/01/14 07:04:15;;;;;;;7.30;4.10;;;-15.60;96.10;;;;;;5014665;28;20439;-83
2024/01/14 07:06:41;;;;;;;7.43;4.47;;;-15.60;96.10;;;;;;5013864;28;20041;-83
2024/01/14 07:09:10;;;;;;;8.45;4.85;;;-15.60;96.10;;;;;;5015506;28;20096;-83
2024/01/14 07:11:36;;;;;;;10.85;4.45;;;-15.60;96.30;;;;;;4995449;28;20022;-83
2024/01/14 07:14:02;;;;;;;10.80;4.97;;;-15.50;96.10;;;;;;5014083;28;20021;-84
2024/01/14 07:16:29;;;;;;;6.90;5.20;;;-15.50;96.00;;;;;;5020031;28;20030;-84
2024/01/14 07:18:55;;;;;;;4.07;3.70;;;-15.50;96.10;;;;;;5020447;28;20089;-84
2024/01/14 07:21:23;;;;;;;16.07;6.20;;;-15.50;96.20;;;;;;5015401;28;20045;-82
2024/01/14 07:23:49;;;;;;;18.20;6.95;;;-15.40;96.30;;;;;;5010415;28;20042;-85
2024/01/14 07:26:17;;;;;;;5.82;4.25;;;-15.30;96.70;;;;;;4995394;28;20502;-84
2024/01/14 07:28:43;;;;;;;6.95;5.30;;;-15.30;96.30;;;;;;4995364;28;20387;-85
2024/01/14 07:31:10;;;;;;;11.23;5.80;;;-15.30;96.10;;;;;;5012999;28;20022;-86
2024/01/14 07:33:36;;;;;;;15.15;6.28;;;-15.30;96.10;;;;;;4995585;28;20073;-87
2024/01/14 07:36:02;;;;;;;13.33;7.03;;;-15.30;95.90;;;;;;4995745;28;20036;-86
2024/01/14 07:38:29;;;;;;;15.77;7.38;;;-15.30;96.00;;;;;;5015724;28;20602;-87
2024/01/14 07:40:56;;;;;;;11.38;7.15;;;-15.30;96.10;;;;;;5014598;28;20033;-87
2024/01/14 07:43:21;;;;;;;17.23;7.93;;;-15.20;96.30;;;;;;5015481;28;20014;-87
2024/01/14 07:45:49;;;;;;;24.60;8.67;;;-15.00;96.50;;;;;;5015955;28;20408;-85
2024/01/14 07:48:15;;;;;;;21.05;7.82;;;-14.90;96.50;;;;;;5000089;28;20022;-86
2024/01/14 07:50:41;;;;;;;10.87;5.57;;;-14.70;96.50;;;;;;5011110;28;20037;-85
2024/01/14 07:53:09;;;;;;;29.90;10.10;;;-14.70;96.30;;;;;;5017798;28;20022;-86
2024/01/14 07:55:35;;;;;;;7.10;5.72;;;-14.70;96.00;;;;;;5011758;28;20100;-84
2024/01/14 07:58:01;;;;;;;26.50;7.50;;;-14.70;95.90;;;;;;5002534;28;20026;-83
2024/01/14 08:00:27;;;;;;;19.80;8.30;;;-14.60;95.80;;;;;;5014355;28;20097;-82
2024/01/14 08:02:53;;;;;;;16.60;9.10;;;-14.70;95.40;;;;;;5010173;28;20026;-82
2024/01/14 08:05:19;;;;;;;14.83;7.97;;;-14.70;95.50;;;;;;5020254;28;20033;-84
2024/01/14 08:07:45;;;;;;;22.38;9.52;;;-14.60;95.60;;;;;;5028767;28;20022;-84
2024/01/14 08:10:11;;;;;;;19.50;7.97;;;-14.50;95.60;;;;;;5032440;28;20026;-81
2024/01/14 08:12:38;;;;;;;20.83;9.73;;;-14.40;95.50;;;;;;5028526;28;20075;-83
2024/01/14 08:15:15;;;;;;;14.13;7.18;;;-14.40;95.40;;;;;;5012513;28;20105;-93
2024/01/14 08:17:41;;;;;;;16.30;9.75;;;-14.30;95.30;;;;;;5003946;28;20019;-87
2024/01/14 08:20:10;;;;;;;15.00;8.32;;;-14.30;94.90;;;;;;5002173;28;20045;-88
2024/01/14 08:22:37;;;;;;;5.13;2.50;;;-14.30;95.00;;;;;;5000663;28;20094;-86
2024/01/14 08:25:04;;;;;;;19.23;9.43;;;-14.20;95.20;;;;;;5015160;28;20042;-86
2024/01/14 08:27:30;;;;;;;;;;;-14.10;95.20;;;;;;5006360;28;20394;-83
2024/01/14 08:29:56;;;;;;;6.73;4.27;;;-14.10;95.10;;;;;;5001502;28;19906;-85
2024/01/14 08:32:22;;;;;;;24.30;7.73;;;-14.00;94.90;;;;;;5006169;28;20518;-82
2024/01/14 08:34:48;;;;;;;14.63;8.90;;;-14.00;94.70;;;;;;4998720;28;20439;-80
2024/01/14 08:37:14;;;;;;;11.60;5.33;;;-14.00;94.60;;;;;;5007519;28;20081;-79
2024/01/14 08:39:39;;;;;;;14.73;8.68;;;-14.10;94.40;;;;;;5007416;28;20272;-82
2024/01/14 08:42:06;;;;;;;24.02;9.85;;;-14.20;94.20;;;;;;5010161;28;20035;-83
2024/01/14 08:44:31;;;;;;;17.20;7.30;;;-14.30;94.10;;;;;;4998695;28;20123;-83
2024/01/14 08:46:57;;;;;;;18.98;8.75;;;-14.40;94.10;;;;;;5020725;28;20039;-83
2024/01/14 08:49:24;;;;;;;11.48;5.13;;;-14.40;94.20;;;;;;5012971;28;20042;-83
2024/01/14 08:51:50;;;;;;;;;;;-14.40;94.40;;;;;;5015117;28;20030;-83
2024/01/14 08:54:17;;;;;;;21.17;6.27;;;-14.40;94.30;;;;;;5016078;28;20024;-83
2024/01/14 08:56:43;;;;;;;20.05;8.15;;;-14.40;94.30;;;;;;5016584;28;20026;-82
2024/01/14 08:59:09;;;;;;;12.57;9.40;;;-14.40;94.30;;;;;;5016290;28;20042;-83
2024/01/14 09:01:35;;;;;;;21.13;9.55;;;-14.30;94.30;;;;;;5016379;28;20053;-85
2024/01/14 09:04:01;;;;;;;24.30;11.88;;;-14.40;94.30;;;;;;5016333;28;20049;-85
2024/01/14 09:06:27;;;;;;;20.15;9.35;;;-14.30;94.70;;;;;;5016046;28;20028;-84
2024/01/14 09:08:53;;;;;;;21.03;7.50;;;-14.20;94.60;;;;;;5015980;28;20416;-82
2024/01/14 09:11:18;;;;;;;12.48;7.78;;;-14.10;94.60;;;;;;5016986;28;20471;-83
2024/01/14 09:13:48;;;;;;;21.10;9.60;;;-14.10;94.60;;;;;;5016859;28;20026;-85
2024/01/14 09:16:14;;;;;;;15.73;7.47;;;-14.10;94.40;;;;;;5021078;28;20030;-87
2024/01/14 09:18:40;;;;;;;18.52;7.60;;;-14.10;94.50;;;;;;5022507;28;20021;-86
2024/01/14 09:21:06;;;;;;;19.47;9.47;;;-14.00;94.80;;;;;;5008124;28;20561;-85
2024/01/14 09:23:32;;;;;;;17.73;8.97;;;-14.10;94.30;;;;;;5016382;28;20036;-85
2024/01/14 09:25:58;;;;;;;8.02;4.55;;;-14.20;94.30;;;;;;5015576;28;20271;-85
2024/01/14 09:28:24;;;;;;;9.93;6.22;;;-14.10;94.60;;;;;;4999071;28;20165;-85
2024/01/14 09:30:51;;;;;;;14.15;6.80;;;-14.20;94.50;;;;;;5016479;28;20070;-88
2024/01/14 09:33:17;;;;;;;8.50;6.10;;;-14.20;94.60;;;;;;5016234;28;20025;-85
2024/01/14 09:35:46;;;;;;;13.35;6.50;;;-14.30;94.70;;;;;;5016354;28;20100;-85
2024/01/14 09:38:13;;;;;;;3.92;3.33;;;-14.30;94.90;;;;;;5017269;28;20515;-86
2024/01/14 09:40:40;;;;;;;;;;;-14.20;95.20;;;;;;5017844;28;20105;-88
2024/01/14 09:43:11;;;;;;;13.40;9.32;;;-14.20;95.50;;;;;;5017106;28;19956;-86
2024/01/14 09:45:40;;;;;;;18.42;7.93;;;-14.10;95.50;;;;;;5019756;28;20057;-87
2024/01/14 09:48:08;;;;;;;16.80;8.77;;;-14.00;95.40;;;;;;5019579;28;20026;-86
2024/01/14 09:50:35;;;;;;;14.88;8.73;;;-14.00;95.40;;;;;;5019791;28;20022;-85
2024/01/14 09:53:00;;;;;;;;;;;-13.90;95.40;;;;;;4998910;28;20025;-81
2024/01/14 09:55:26;;;;;;;14.57;6.97;;;-13.90;95.30;;;;;;5011496;28;20374;-83
2024/01/14 09:57:53;;;;;;;13.35;7.95;;;-14.00;95.10;;;;;;5014929;28;20061;-81
2024/01/14 10:00:23;;;;;;;14.68;8.18;;;-14.10;94.90;;;;;;5010926;28;20033;-81
2024/01/14 10:02:49;;;;;;;19.45;9.23;;;-14.20;94.90;;;;;;5017720;28;20114;-83
2024/01/14 10:05:16;;;;;;;8.87;6.17;;;-14.30;94.80;;;;;;5028605;28;20473;-82
2024/01/14 10:07:44;;;;;;;9.57;6.35;;;-14.40;94.90;;;;;;5023760;28;20025;-81
2024/01/14 10:10:10;;;;;;;20.92;9.80;;;-14.50;95.20;;;;;;5013225;28;20037;-79
2024/01/14 10:12:37;;;;;;;16.98;7.50;;;-14.40;95.40;;;;;;5011541;28;20018;-81
2024/01/14 10:15:04;;;;;;;9.45;6.72;;;-14.40;95.60;;;;;;5016170;28;20037;-81
2024/01/14 10:17:31;;;;;;;15.75;8.25;;;-14.40;95.50;;;;;;5015738;28;20022;-83
2024/01/14 10:20:00;;;;;;;20.63;10.55;;;-14.40;95.40;;;;;;5009399;28;20026;-83
2024/01/14 10:22:26;;;;;;;9.90;7.63;;;-14.40;95.70;;;;;;5014079;28;20026;-84
2024/01/14 10:24:53;;;;;;;18.02;9.50;;;-14.30;95.90;;;;;;5014614;28;20061;-80
2024/01/14 10:27:21;;;;;;;11.23;7.55;;;-14.20;95.90;;;;;;5016971;28;20379;-84
2024/01/14 10:29:49;;;;;;;19.48;7.57;;;-14.20;95.80;;;;;;5013969;28;20022;-80
2024/01/14 10:32:15;;;;;;;15.30;8.25;;;-14.20;95.70;;;;;;5014350;28;20033;-81
2024/01/14 10:34:42;;;;;;;14.25;5.95;;;-14.20;95.60;;;;;;5017610;28;20025;-83
2024/01/14 10:37:08;;;;;;;12.77;6.65;;;-14.20;95.60;;;;;;5014005;28;20112;-85
2024/01/14 10:39:35;;;;;;;10.93;6.10;;;-14.10;95.80;;;;;;5013662;28;20021;-84
2024/01/14 10:42:01;;;;;;;9.77;5.80;;;-14.00;96.00;;;;;;5014309;28;20022;-81
2024/01/14 10:44:31;;;;;;;18.73;10.32;;;-14.00;95.90;;;;;;5013070;28;20029;-82
2024/01/14 10:47:00;;;;;;;18.00;8.15;;;-14.00;95.80;;;;;;5013241;28;20073;-81
2024/01/14 10:49:26;;;;;;;17.60;8.85;;;-13.90;95.90;;;;;;5013252;28;20022;-83
2024/01/14 10:52:09;;;;;;;21.08;9.00;;;-13.80;95.90;;;;;;5013657;28;20024;-83
2024/01/14 10:54:52;;;;;;;29.70;11.45;;;-13.80;95.70;;;;;;5006450;28;20154;-83
2024/01/14 10:57:34;;;;;;;11.57;8.50;;;-13.80;95.60;;;;;;5013235;28;20018;-82
2024/01/14 11:00:05;;;;;;;16.33;7.93;;;-13.90;95.50;;;;;;5013480;28;20018;-84
2024/01/14 11:02:33;;;;;;;14.77;7.28;;;-13.90;95.60;;;;;;5012650;28;20017;-83
2024/01/14 11:05:00;;;;;;;14.00;9.10;;;-13.90;95.70;;;;;;5013759;28;20029;-83
2024/01/14 11:07:28;;;;;;;11.43;8.68;;;-13.90;95.60;;;;;;5013341;28;20021;-85
2024/01/14 11:09:54;;;;;;;15.60;9.40;;;-13.90;95.70;;;;;;5014005;28;20030;-84
2024/01/14 11:12:27;;;;;;;13.43;8.43;;;-13.90;95.80;;;;;;5013923;28;20442;-82
2024/01/14 11:15:15;;;;;;;15.05;10.18;;;-13.80;96.00;;;;;;5013681;28;20022;-84
2024/01/14 11:18:06;;;;;;;19.50;10.18;;;-13.70;96.10;;;;;;5014973;28;20052;-83
2024/01/14 11:20:36;;;;;;;19.00;10.27;;;-13.70;96.00;;;;;;5028219;28;20044;-84
2024/01/14 11:23:02;;;;;;;18.02;9.13;;;-13.60;96.00;;;;;;5024141;28;20025;-84
2024/01/14 11:25:32;;;;;;;17.45;8.77;;;-13.50;96.10;;;;;;5016512;28;20022;-85
2024/01/14 11:28:00;;;;;;;23.00;10.57;;;-13.50;95.90;;;;;;5001571;28;20050;-84
2024/01/14 11:30:47;;;;;;;23.00;13.05;;;-13.60;95.80;;;;;;5013870;28;20084;-83
2024/01/14 11:33:48;;;;;;;11.40;7.78;;;-13.60;95.90;;;;;;5003358;28;20153;-86
2024/01/14 11:36:53;;;;;;;14.57;7.80;;;-13.50;96.10;;;;;;5032587;28;20085;-83
2024/01/14 11:39:18;;;;;;;12.55;7.95;;;-13.50;96.00;;;;;;5023860;28;20022;-84
2024/01/14 11:41:45;;;;;;;11.05;6.38;;;-13.50;96.00;;;;;;5018206;28;20048;-84
2024/01/14 11:44:14;;;;;;;20.52;12.35;;;-13.60;96.10;;;;;;5027262;28;20045;-86
2024/01/14 11:46:48;;;;;;;20.45;8.07;;;-13.50;96.30;;;;;;5028209;28;20046;-86
2024/01/14 11:49:22;;;;;;;12.07;7.47;;;-13.40;96.40;;;;;;5030124;28;20021;-84
2024/01/14 11:51:58;;;;;;;11.52;7.03;;;-13.40;96.40;;;;;;5002711;28;20509;-84
2024/01/14 11:54:24;;;;;;;17.70;9.15;;;-13.40;96.20;;;;;;5014689;28;20093;-84
2024/01/14 11:56:52;;;;;;;14.63;9.38;;;-13.50;96.20;;;;;;5011775;28;20538;-82
2024/01/14 11:59:18;;;;;;;23.85;11.77;;;-13.50;96.50;;;;;;5013103;28;20034;-81
2024/01/14 12:01:44;;;;;;;12.57;8.10;;;-13.50;96.70;;;;;;5012521;28;20026;-83
2024/01/14 12:04:10;;;;;;;8.60;7.22;;;-13.40;96.80;;;;;;5012297;28;20426;-83
2024/01/14 12:06:47;;;;;;;26.73;14.70;;;-13.40;96.70;;;;;;5011536;28;20117;-83
2024/01/14 12:09:14;;;;;;;10.75;7.78;;;-13.40;96.70;;;;;;5013721;28;20287;-83
2024/01/14 12:11:43;;;;;;;24.98;12.23;;;-13.30;96.80;;;;;;5013680;28;20018;-83
2024/01/14 12:14:10;;;;;;;21.73;12.73;;;-13.30;96.70;;;;;;5013087;28;20030;-84
2024/01/14 12:16:38;;;;;;;9.57;7.25;;;-13.30;96.90;;;;;;5012650;28;20410;-83
2024/01/14 12:19:20;;;;;;;18.35;10.57;;;-13.30;97.00;;;;;;5014490;28;20022;-83
2024/01/14 12:21:46;;;;;;;15.57;8.43;;;-13.30;96.90;;;;;;5010730;28;20026;-84
2024/01/14 12:24:12;;;;;;;20.02;11.70;;;-13.20;97.00;;;;;;5012786;28;20026;-83
2024/01/14 12:26:38;;;;;;;19.08;11.25;;;-13.20;97.00;;;;;;5012506;28;20033;-83
2024/01/14 12:29:04;;;;;;;21.80;11.38;;;-13.10;97.20;;;;;;4995295;28;20026;-84
2024/01/14 12:31:34;;;;;;;19.48;10.93;;;-13.10;97.10;;;;;;5014197;28;20364;-82